Terminal Aerodrome Forecast
Issued by NWS Charleston, WV

Current Version | Previous Version | Graphics & Text | Print | Product List | Glossary On
Versions: 1 2 3 4 5 6 7 8 9 10 11 12 13 14 15 16 17 18 19 20 21 22 23 24
000
FTUS41 KRLX 231100
TAFPKB
TAF
KPKB 231120Z 2312/2412 00000KT P6SM FEW027
     FM232200 11004KT 5SM -RA OVC035
     FM232300 08005KT 3SM -RA BR OVC025
     FM240100 04004KT 2SM -RASN BR OVC015
     FM240400 VRB03KT 1SM -SN BR OVC008
     FM240800 VRB03KT 3SM -SN OVC010
     FM241000 VRB03KT P6SM BKN020=

USA.gov is the U.S. government's official web portal to all federal, state and local government web resources and services.